Time;durP1;ratioP1;P1;durP2;ratioP2;P2;SDS_P1;SDS_P2;PMS_P1;PMS_P2;Temp;Humidity;BMP_temperature;BMP_pressure;BME280_temperature;BME280_humidity;BME280_pressure;Samples;Min_cycle;Max_cycle;Signal;HPM_P1;HPM_P2
2021/01/09 00:01:49;;;;;;;11.77;7.37;;;;;;;;;;5074117;28;20834;-73
2021/01/09 00:04:15;;;;;;;10.57;5.77;;;;;;;;;;5073784;28;20429;-72
2021/01/09 00:06:43;;;;;;;12.30;6.50;;;;;;;;;;5075241;28;20493;-72
2021/01/09 00:09:09;;;;;;;11.03;6.87;;;;;;;;;;5075050;28;20532;-72
2021/01/09 00:11:35;;;;;;;12.63;7.03;;;;;;;;;;5075702;28;20413;-73
2021/01/09 00:14:01;;;;;;;11.10;6.70;;;;;;;;;;5075907;28;20964;-72
2021/01/09 00:16:27;;;;;;;12.00;7.67;;;;;;;;;;5075486;28;20405;-73
2021/01/09 00:18:53;;;;;;;11.67;7.33;;;;;;;;;;5074095;28;20416;-72
2021/01/09 00:21:19;;;;;;;9.60;6.97;;;;;;;;;;5077505;28;20513;-73
2021/01/09 00:23:45;;;;;;;13.17;7.57;;;;;;;;;;5073032;28;20409;-72
2021/01/09 00:26:11;;;;;;;8.83;6.23;;;;;;;;;;5075249;28;20473;-73
2021/01/09 00:28:37;;;;;;;11.70;6.83;;;;;;;;;;5073659;28;20450;-72
2021/01/09 00:31:06;;;;;;;12.00;6.97;;;;;;;;;;5073411;28;20465;-72
2021/01/09 00:33:32;;;;;;;10.17;5.47;;;;;;;;;;5075398;28;20486;-72
2021/01/09 00:35:58;;;;;;;13.00;7.67;;;;;;;;;;5074038;28;20936;-73
2021/01/09 00:38:24;;;;;;;11.07;5.57;;;;;;;;;;5074909;28;20933;-72
2021/01/09 00:40:50;;;;;;;11.83;7.10;;;;;;;;;;5073867;28;20418;-73
2021/01/09 00:43:16;;;;;;;11.97;7.40;;;;;;;;;;5074946;28;20409;-72
2021/01/09 00:45:43;;;;;;;13.57;7.00;;;;;;;;;;5074102;28;20412;-72
2021/01/09 00:48:09;;;;;;;10.00;6.90;;;;;;;;;;5074784;28;20484;-72
2021/01/09 00:50:35;;;;;;;12.57;7.80;;;;;;;;;;5073510;28;20551;-73
2021/01/09 00:53:01;;;;;;;12.67;8.10;;;;;;;;;;5073480;28;20414;-72
2021/01/09 00:55:27;;;;;;;13.50;6.93;;;;;;;;;;5073586;28;20421;-71
2021/01/09 00:57:53;;;;;;;11.30;7.53;;;;;;;;;;5074722;28;20406;-73
2021/01/09 01:00:19;;;;;;;17.43;7.90;;;;;;;;;;5072592;28;20455;-73
2021/01/09 01:02:46;;;;;;;9.97;6.30;;;;;;;;;;5073277;28;20940;-72
2021/01/09 01:05:12;;;;;;;12.83;7.80;;;;;;;;;;5071499;28;20430;-73
2021/01/09 01:07:38;;;;;;;9.37;6.47;;;;;;;;;;5074156;28;20425;-72
2021/01/09 01:10:05;;;;;;;12.07;6.90;;;;;;;;;;5073922;28;20450;-72
2021/01/09 01:12:31;;;;;;;15.80;7.07;;;;;;;;;;5074611;28;20406;-73
2021/01/09 01:14:57;;;;;;;12.93;6.57;;;;;;;;;;5073320;28;20441;-73
2021/01/09 01:17:25;;;;;;;12.37;7.83;;;;;;;;;;5074210;28;20405;-73
2021/01/09 01:19:52;;;;;;;14.70;8.30;;;;;;;;;;5071302;28;20447;-73
2021/01/09 01:22:17;;;;;;;10.47;7.00;;;;;;;;;;5073952;28;20405;-73
2021/01/09 01:24:43;;;;;;;10.43;6.77;;;;;;;;;;5071020;28;20791;-72
2021/01/09 01:27:09;;;;;;;11.70;6.37;;;;;;;;;;5073909;28;20435;-72
2021/01/09 01:29:35;;;;;;;16.40;8.27;;;;;;;;;;5072607;28;20534;-72
2021/01/09 01:32:01;;;;;;;11.10;7.03;;;;;;;;;;5073721;28;20859;-72
2021/01/09 01:34:27;;;;;;;13.27;6.83;;;;;;;;;;5072686;28;20457;-72
2021/01/09 01:36:53;;;;;;;14.63;6.90;;;;;;;;;;5072353;28;20496;-72
2021/01/09 01:39:20;;;;;;;14.00;6.43;;;;;;;;;;5071382;28;20455;-72
2021/01/09 01:41:46;;;;;;;15.77;7.20;;;;;;;;;;5073558;28;20805;-72
2021/01/09 01:44:12;;;;;;;9.80;6.80;;;;;;;;;;5072637;28;20402;-71
2021/01/09 01:46:38;;;;;;;16.17;7.13;;;;;;;;;;5073408;28;20837;-72
2021/01/09 01:49:06;;;;;;;13.33;7.37;;;;;;;;;;5072879;28;20525;-73
2021/01/09 01:51:32;;;;;;;11.80;6.47;;;;;;;;;;5073088;28;20487;-73
2021/01/09 01:53:59;;;;;;;13.93;7.70;;;;;;;;;;5072626;28;20431;-73
2021/01/09 01:56:25;;;;;;;13.47;7.70;;;;;;;;;;5070795;28;20440;-73
2021/01/09 01:58:52;;;;;;;12.53;6.90;;;;;;;;;;5072013;28;20427;-72
2021/01/09 02:01:18;;;;;;;15.53;7.77;;;;;;;;;;5072360;28;20495;-73
2021/01/09 02:03:44;;;;;;;12.17;7.80;;;;;;;;;;5073480;28;20485;-72
2021/01/09 02:06:16;;;;;;;12.47;7.00;;;;;;;;;;5070373;28;20419;-72
2021/01/09 02:08:51;;;;;;;10.00;7.17;;;;;;;;;;5073018;28;20476;-72
2021/01/09 02:11:23;;;;;;;11.17;6.63;;;;;;;;;;5071217;28;20459;-72
2021/01/09 02:13:53;;;;;;;13.10;7.83;;;;;;;;;;5073384;28;20386;-72
2021/01/09 02:16:19;;;;;;;16.60;7.10;;;;;;;;;;5071651;28;20412;-72
2021/01/09 02:18:46;;;;;;;16.47;7.97;;;;;;;;;;5073484;28;20415;-73
2021/01/09 02:21:26;;;;;;;13.40;7.57;;;;;;;;;;5072753;28;20914;-72
2021/01/09 02:23:52;;;;;;;12.70;6.30;;;;;;;;;;5072514;28;20378;-73
2021/01/09 02:26:18;;;;;;;16.70;8.33;;;;;;;;;;5072397;28;20952;-72
2021/01/09 02:28:44;;;;;;;16.27;9.00;;;;;;;;;;5073712;28;20417;-72
2021/01/09 02:31:10;;;;;;;10.70;7.00;;;;;;;;;;5072151;28;20453;-72
2021/01/09 02:33:37;;;;;;;14.50;7.33;;;;;;;;;;5073223;28;20431;-72
2021/01/09 02:36:04;;;;;;;11.53;7.40;;;;;;;;;;5072696;28;20413;-72
2021/01/09 02:38:30;;;;;;;11.70;8.00;;;;;;;;;;5073246;28;20932;-72
2021/01/09 02:40:57;;;;;;;14.73;9.80;;;;;;;;;;5071027;28;20430;-72
2021/01/09 02:43:26;;;;;;;10.30;7.00;;;;;;;;;;5073567;28;20407;-72
2021/01/09 02:45:52;;;;;;;12.90;6.80;;;;;;;;;;5071274;28;20437;-73
2021/01/09 02:48:18;;;;;;;12.83;7.40;;;;;;;;;;5073456;28;20798;-72
2021/01/09 02:50:44;;;;;;;13.13;8.47;;;;;;;;;;5072556;28;20458;-72
2021/01/09 02:53:10;;;;;;;12.23;7.33;;;;;;;;;;5072715;28;20423;-72
2021/01/09 02:55:36;;;;;;;12.60;7.40;;;;;;;;;;5072262;28;20422;-72
2021/01/09 02:58:02;;;;;;;13.40;7.97;;;;;;;;;;5073450;28;20426;-72
2021/01/09 03:00:28;;;;;;;11.97;7.33;;;;;;;;;;5071424;28;20433;-73
2021/01/09 03:02:54;;;;;;;12.00;7.43;;;;;;;;;;5072284;28;20433;-72
2021/01/09 03:05:20;;;;;;;18.50;8.20;;;;;;;;;;5071638;28;20422;-73
2021/01/09 03:07:46;;;;;;;12.30;7.10;;;;;;;;;;5073095;28;20408;-73
2021/01/09 03:10:12;;;;;;;18.77;8.57;;;;;;;;;;5073064;28;20825;-72
2021/01/09 03:12:38;;;;;;;13.33;7.37;;;;;;;;;;5071640;28;20425;-72
2021/01/09 03:15:04;;;;;;;10.47;8.70;;;;;;;;;;5073440;28;20406;-72
2021/01/09 03:17:30;;;;;;;12.00;6.93;;;;;;;;;;5072209;28;20841;-72
2021/01/09 03:19:56;;;;;;;11.90;7.43;;;;;;;;;;5072921;28;20427;-72
2021/01/09 03:22:22;;;;;;;13.17;7.93;;;;;;;;;;5072489;28;20471;-72
2021/01/09 03:24:48;;;;;;;14.93;7.83;;;;;;;;;;5074599;28;20398;-72
2021/01/09 03:27:14;;;;;;;11.47;6.83;;;;;;;;;;5073399;28;20435;-71
2021/01/09 03:29:40;;;;;;;13.37;7.87;;;;;;;;;;5075960;28;20828;-72
2021/01/09 03:32:06;;;;;;;13.97;7.73;;;;;;;;;;5074452;28;20428;-71
2021/01/09 03:34:32;;;;;;;12.80;8.13;;;;;;;;;;5074715;28;21055;-72
2021/01/09 03:36:58;;;;;;;16.10;7.57;;;;;;;;;;5074978;28;20417;-72
2021/01/09 03:39:24;;;;;;;17.10;8.30;;;;;;;;;;5076142;28;20424;-72
2021/01/09 03:41:50;;;;;;;17.87;9.03;;;;;;;;;;5074835;28;20425;-72
2021/01/09 03:44:16;;;;;;;14.27;7.50;;;;;;;;;;5074813;28;20440;-72
2021/01/09 03:46:42;;;;;;;14.73;7.17;;;;;;;;;;5074773;28;20469;-72
2021/01/09 03:49:08;;;;;;;13.00;7.40;;;;;;;;;;5075729;28;20778;-72
2021/01/09 03:51:34;;;;;;;15.57;8.33;;;;;;;;;;5074734;28;20911;-72
2021/01/09 03:54:00;;;;;;;13.93;7.03;;;;;;;;;;5075669;28;20399;-72
2021/01/09 03:56:26;;;;;;;10.97;7.97;;;;;;;;;;5074561;28;20430;-71
2021/01/09 03:58:52;;;;;;;17.50;9.37;;;;;;;;;;5075766;28;20423;-72
2021/01/09 04:01:19;;;;;;;15.70;8.70;;;;;;;;;;5074688;28;20424;-71
2021/01/09 04:03:45;;;;;;;12.73;7.07;;;;;;;;;;5075551;28;20427;-72
2021/01/09 04:06:11;;;;;;;19.00;10.20;;;;;;;;;;5074305;28;20425;-71
2021/01/09 04:08:37;;;;;;;16.80;8.77;;;;;;;;;;5075318;28;21040;-72
2021/01/09 04:11:03;;;;;;;12.20;7.47;;;;;;;;;;5073510;28;20573;-71
2021/01/09 04:13:29;;;;;;;20.20;9.00;;;;;;;;;;5075616;28;20422;-72
2021/01/09 04:15:55;;;;;;;17.53;8.50;;;;;;;;;;5074295;28;20501;-72
2021/01/09 04:18:21;;;;;;;16.83;8.10;;;;;;;;;;5074401;28;20445;-72
2021/01/09 04:20:47;;;;;;;12.07;7.43;;;;;;;;;;5075292;28;20916;-72
2021/01/09 04:23:13;;;;;;;11.23;8.67;;;;;;;;;;5074192;28;20439;-72
2021/01/09 04:25:39;;;;;;;15.07;8.13;;;;;;;;;;5075357;28;20758;-72
2021/01/09 04:28:05;;;;;;;13.07;8.37;;;;;;;;;;5071267;28;20504;-71
2021/01/09 04:30:31;;;;;;;15.33;8.50;;;;;;;;;;5075005;28;20442;-72
2021/01/09 04:32:57;;;;;;;15.63;9.50;;;;;;;;;;5073990;28;20434;-73
2021/01/09 04:35:23;;;;;;;11.30;8.07;;;;;;;;;;5074761;28;20472;-73
2021/01/09 04:37:49;;;;;;;16.63;9.50;;;;;;;;;;5074144;28;20795;-72
2021/01/09 04:40:15;;;;;;;18.53;8.40;;;;;;;;;;5074890;28;20481;-72
2021/01/09 04:42:41;;;;;;;12.80;7.47;;;;;;;;;;5073793;28;20436;-72
2021/01/09 04:45:07;;;;;;;15.03;8.70;;;;;;;;;;5075070;28;20406;-72
2021/01/09 04:47:35;;;;;;;19.40;8.40;;;;;;;;;;5072527;28;20450;-72
2021/01/09 04:50:01;;;;;;;15.70;8.23;;;;;;;;;;5073747;28;20508;-72
2021/01/09 04:52:27;;;;;;;16.33;9.20;;;;;;;;;;5073528;28;20431;-72
2021/01/09 04:54:54;;;;;;;21.17;9.53;;;;;;;;;;5074836;28;20410;-72
2021/01/09 04:57:20;;;;;;;22.93;9.30;;;;;;;;;;5073707;28;20900;-72
2021/01/09 04:59:47;;;;;;;12.57;7.17;;;;;;;;;;5073070;28;20426;-72
2021/01/09 05:02:13;;;;;;;13.23;8.00;;;;;;;;;;5073531;28;20504;-72
2021/01/09 05:04:46;;;;;;;18.43;8.67;;;;;;;;;;5074291;28;20408;-72
2021/01/09 05:07:12;;;;;;;13.43;8.97;;;;;;;;;;5073224;28;20427;-72
2021/01/09 05:09:38;;;;;;;15.83;10.20;;;;;;;;;;5072765;28;20470;-73
2021/01/09 05:12:04;;;;;;;14.47;7.87;;;;;;;;;;5073448;28;20424;-72
2021/01/09 05:14:30;;;;;;;14.77;8.80;;;;;;;;;;5074093;28;20394;-72
2021/01/09 05:17:00;;;;;;;12.23;7.67;;;;;;;;;;5073202;28;20479;-72
2021/01/09 05:19:29;;;;;;;16.80;8.73;;;;;;;;;;5073921;28;20478;-72
2021/01/09 05:21:56;;;;;;;16.27;10.03;;;;;;;;;;5070872;28;20499;-72
2021/01/09 05:24:23;;;;;;;15.67;9.10;;;;;;;;;;5074060;28;20765;-72
2021/01/09 05:26:49;;;;;;;18.00;8.87;;;;;;;;;;5072804;28;20456;-72
2021/01/09 05:29:17;;;;;;;17.37;9.57;;;;;;;;;;5072183;28;20442;-72
2021/01/09 05:31:43;;;;;;;18.20;9.57;;;;;;;;;;5073649;28;20479;-72
2021/01/09 05:34:09;;;;;;;14.73;8.77;;;;;;;;;;5073743;28;20818;-72
2021/01/09 05:36:35;;;;;;;16.03;8.27;;;;;;;;;;5072785;28;20488;-72
2021/01/09 05:39:03;;;;;;;13.23;9.00;;;;;;;;;;5073446;28;20906;-72
2021/01/09 05:41:29;;;;;;;17.87;8.80;;;;;;;;;;5072982;28;20457;-71
2021/01/09 05:44:08;;;;;;;17.33;10.20;;;;;;;;;;5073174;28;20910;-72
2021/01/09 05:46:39;;;;;;;17.83;9.63;;;;;;;;;;5072194;28;20395;-72
2021/01/09 05:49:05;;;;;;;19.90;8.83;;;;;;;;;;5053349;28;20891;-72
2021/01/09 05:51:32;;;;;;;14.33;8.00;;;;;;;;;;5053475;28;20756;-71
2021/01/09 05:53:58;;;;;;;14.30;8.43;;;;;;;;;;5073332;28;20434;-72
2021/01/09 05:56:25;;;;;;;12.63;7.73;;;;;;;;;;5072535;28;20415;-72
2021/01/09 05:58:51;;;;;;;21.10;10.03;;;;;;;;;;5072177;28;20439;-72
2021/01/09 06:01:20;;;;;;;18.33;8.20;;;;;;;;;;5073280;28;20484;-72
2021/01/09 06:03:47;;;;;;;18.50;8.73;;;;;;;;;;5071987;28;20466;-72
2021/01/09 06:06:24;;;;;;;20.30;10.43;;;;;;;;;;5071951;28;20469;-72
2021/01/09 06:08:54;;;;;;;12.37;7.30;;;;;;;;;;5071950;28;20458;-73
2021/01/09 06:11:24;;;;;;;16.80;8.73;;;;;;;;;;5073859;28;20454;-73
2021/01/09 06:13:52;;;;;;;17.10;8.97;;;;;;;;;;5073459;28;20839;-73
2021/01/09 06:16:18;;;;;;;18.00;8.83;;;;;;;;;;5074451;28;20494;-73
2021/01/09 06:18:45;;;;;;;13.37;8.53;;;;;;;;;;5073304;28;20449;-73
2021/01/09 06:21:12;;;;;;;14.60;8.83;;;;;;;;;;5074687;28;20402;-73
2021/01/09 06:23:38;;;;;;;16.67;9.20;;;;;;;;;;5073561;28;20845;-73
2021/01/09 06:26:05;;;;;;;13.27;7.50;;;;;;;;;;5074219;28;20436;-73
2021/01/09 06:28:39;;;;;;;12.10;8.30;;;;;;;;;;5073064;28;20930;-73
2021/01/09 06:31:07;;;;;;;14.30;7.27;;;;;;;;;;5074426;28;20453;-73
2021/01/09 06:33:38;;;;;;;15.10;10.33;;;;;;;;;;5059223;28;20787;-73
2021/01/09 06:36:04;;;;;;;16.43;8.97;;;;;;;;;;5053737;28;20387;-73
2021/01/09 06:38:31;;;;;;;15.50;8.90;;;;;;;;;;5066017;28;20481;-73
2021/01/09 06:40:57;;;;;;;16.50;9.73;;;;;;;;;;5073884;28;20403;-73
2021/01/09 06:43:23;;;;;;;18.80;8.97;;;;;;;;;;5072267;28;20787;-72
2021/01/09 06:45:49;;;;;;;15.07;8.67;;;;;;;;;;5074280;28;20399;-73
2021/01/09 06:48:16;;;;;;;16.87;9.67;;;;;;;;;;5071548;28;20458;-73
2021/01/09 06:50:42;;;;;;;20.73;8.97;;;;;;;;;;5074567;28;20841;-73
2021/01/09 06:53:15;;;;;;;15.47;8.30;;;;;;;;;;5071381;28;20411;-72
2021/01/09 06:55:41;;;;;;;19.70;9.07;;;;;;;;;;5072855;28;20404;-72
2021/01/09 06:58:07;;;;;;;13.53;8.00;;;;;;;;;;5063319;28;20523;-72
2021/01/09 07:00:33;;;;;;;15.70;9.60;;;;;;;;;;5072343;28;20499;-72
2021/01/09 07:03:11;;;;;;;18.50;9.90;;;;;;;;;;5073483;28;20501;-72
2021/01/09 07:05:44;;;;;;;12.97;7.73;;;;;;;;;;5076758;28;20480;-72
2021/01/09 07:08:10;;;;;;;16.27;8.83;;;;;;;;;;5076323;28;20469;-72
2021/01/09 07:10:54;;;;;;;20.00;10.23;;;;;;;;;;5076677;28;20485;-72
2021/01/09 07:13:20;;;;;;;23.43;9.80;;;;;;;;;;5075540;28;20445;-72
2021/01/09 07:15:47;;;;;;;16.27;9.60;;;;;;;;;;5076568;28;20468;-72
2021/01/09 07:18:13;;;;;;;20.07;9.10;;;;;;;;;;5075267;28;20445;-72
2021/01/09 07:20:42;;;;;;;18.20;9.20;;;;;;;;;;5076639;28;20805;-73
2021/01/09 07:23:10;;;;;;;17.37;9.10;;;;;;;;;;5075621;28;20429;-73
2021/01/09 07:25:40;;;;;;;16.23;7.73;;;;;;;;;;5076267;28;20412;-72
2021/01/09 07:28:10;;;;;;;11.70;7.73;;;;;;;;;;5075177;28;20446;-72
2021/01/09 07:30:37;;;;;;;17.43;8.23;;;;;;;;;;5076372;28;20450;-72
2021/01/09 07:33:05;;;;;;;14.20;7.73;;;;;;;;;;5073693;28;20446;-72
2021/01/09 07:35:31;;;;;;;16.10;9.27;;;;;;;;;;5074910;28;20522;-72
2021/01/09 07:37:57;;;;;;;16.67;8.47;;;;;;;;;;5075235;28;20472;-72
2021/01/09 07:40:24;;;;;;;13.50;8.67;;;;;;;;;;5076333;28;20414;-72
2021/01/09 07:42:50;;;;;;;13.50;8.93;;;;;;;;;;5074914;28;20607;-72
2021/01/09 07:45:18;;;;;;;15.67;9.03;;;;;;;;;;5074588;28;20417;-72
2021/01/09 07:47:45;;;;;;;15.10;8.23;;;;;;;;;;5074683;28;20417;-72
2021/01/09 07:50:12;;;;;;;14.93;8.50;;;;;;;;;;5075810;28;20488;-72
2021/01/09 07:52:38;;;;;;;19.73;9.50;;;;;;;;;;5073875;28;20506;-72
2021/01/09 07:55:05;;;;;;;15.97;9.80;;;;;;;;;;5075633;28;20400;-72
2021/01/09 07:57:32;;;;;;;11.93;7.97;;;;;;;;;;5073298;28;20460;-72
2021/01/09 07:59:58;;;;;;;14.60;8.10;;;;;;;;;;5075538;28;20506;-73
2021/01/09 08:02:24;;;;;;;12.17;8.47;;;;;;;;;;5074590;28;20517;-72
2021/01/09 08:04:50;;;;;;;15.13;8.80;;;;;;;;;;5075017;28;20426;-72
2021/01/09 08:07:17;;;;;;;12.27;8.03;;;;;;;;;;5075974;28;20760;-72
2021/01/09 08:09:43;;;;;;;11.87;7.90;;;;;;;;;;5072977;28;20482;-72
2021/01/09 08:12:09;;;;;;;13.97;8.00;;;;;;;;;;5075423;28;20403;-73
2021/01/09 08:14:35;;;;;;;12.87;8.30;;;;;;;;;;5074403;28;20425;-73
2021/01/09 08:17:12;;;;;;;12.73;9.27;;;;;;;;;;5075973;28;20409;-73
2021/01/09 08:19:38;;;;;;;11.97;7.07;;;;;;;;;;5073635;28;20463;-73
2021/01/09 08:22:05;;;;;;;12.17;7.37;;;;;;;;;;5075015;28;20435;-73
2021/01/09 08:24:31;;;;;;;11.93;6.90;;;;;;;;;;5074326;28;20437;-72
2021/01/09 08:26:58;;;;;;;13.03;8.07;;;;;;;;;;5075182;28;20403;-72
2021/01/09 08:29:24;;;;;;;9.63;6.93;;;;;;;;;;5072365;28;20477;-73
2021/01/09 08:31:51;;;;;;;12.10;7.30;;;;;;;;;;5075244;28;20402;-72
2021/01/09 08:34:20;;;;;;;14.43;7.17;;;;;;;;;;5069570;28;20430;-71
2021/01/09 08:36:48;;;;;;;14.80;6.93;;;;;;;;;;5072515;28;20480;-77
2021/01/09 08:39:14;;;;;;;11.87;6.13;;;;;;;;;;5082926;28;20437;-73
2021/01/09 08:41:41;;;;;;;9.93;5.93;;;;;;;;;;5090551;28;20441;-73
2021/01/09 08:44:07;;;;;;;13.83;6.90;;;;;;;;;;5091376;28;20430;-73
2021/01/09 08:46:34;;;;;;;13.20;7.40;;;;;;;;;;5086119;28;20425;-73
2021/01/09 08:49:00;;;;;;;13.87;7.10;;;;;;;;;;5085747;28;20488;-73
2021/01/09 08:51:26;;;;;;;10.77;6.50;;;;;;;;;;5085855;28;20459;-73
2021/01/09 08:53:52;;;;;;;9.13;5.67;;;;;;;;;;5075648;28;20431;-73
2021/01/09 08:56:21;;;;;;;9.33;5.80;;;;;;;;;;5073586;28;20419;-75
2021/01/09 08:58:48;;;;;;;9.17;6.10;;;;;;;;;;5073387;28;20442;-72
2021/01/09 09:01:15;;;;;;;11.17;6.27;;;;;;;;;;5073620;28;20426;-72
2021/01/09 09:03:44;;;;;;;11.90;6.97;;;;;;;;;;5072599;28;20434;-70
2021/01/09 09:06:13;;;;;;;13.13;6.93;;;;;;;;;;5075069;28;20432;-68
2021/01/09 09:08:40;;;;;;;12.40;5.90;;;;;;;;;;5073689;28;20471;-67
2021/01/09 09:11:06;;;;;;;8.63;5.50;;;;;;;;;;5074502;28;20461;-69
2021/01/09 09:13:32;;;;;;;13.17;5.97;;;;;;;;;;5075035;28;20430;-69
2021/01/09 09:15:58;;;;;;;8.83;5.73;;;;;;;;;;5073749;28;20908;-69
2021/01/09 09:18:32;;;;;;;9.90;5.83;;;;;;;;;;5073257;28;20446;-67
2021/01/09 09:20:58;;;;;;;9.77;6.23;;;;;;;;;;5072823;28;20412;-68
2021/01/09 09:23:25;;;;;;;10.27;6.97;;;;;;;;;;5071552;28;20437;-67
2021/01/09 09:26:04;;;;;;;12.80;7.27;;;;;;;;;;5074237;28;20413;-68
2021/01/09 09:28:31;;;;;;;12.57;6.63;;;;;;;;;;5057534;28;20959;-69
2021/01/09 09:30:57;;;;;;;11.67;6.60;;;;;;;;;;5072009;28;20453;-74
2021/01/09 09:33:24;;;;;;;9.73;6.30;;;;;;;;;;5060816;28;20407;-70
2021/01/09 09:35:50;;;;;;;15.13;7.50;;;;;;;;;;5073142;28;20776;-73
2021/01/09 09:38:25;;;;;;;11.57;6.80;;;;;;;;;;5072129;28;20451;-70
2021/01/09 09:40:51;;;;;;;11.50;7.07;;;;;;;;;;5074050;28;20391;-70
2021/01/09 09:43:18;;;;;;;13.50;7.60;;;;;;;;;;5072534;28;20445;-68
2021/01/09 09:46:13;;;;;;;11.80;6.80;;;;;;;;;;5073606;28;20505;-69
2021/01/09 09:48:44;;;;;;;13.37;6.90;;;;;;;;;;5061504;28;20527;-72
2021/01/09 09:51:13;;;;;;;13.20;7.07;;;;;;;;;;5073391;28;20448;-76
2021/01/09 09:53:40;;;;;;;13.70;7.20;;;;;;;;;;5068112;28;20419;-71
2021/01/09 09:56:16;;;;;;;12.60;6.30;;;;;;;;;;5072120;28;20466;-74
2021/01/09 09:58:43;;;;;;;12.87;7.10;;;;;;;;;;5071126;28;21026;-75
2021/01/09 10:01:16;;;;;;;12.30;7.87;;;;;;;;;;5069970;28;20419;-70
2021/01/09 10:03:42;;;;;;;13.37;9.03;;;;;;;;;;5071280;28;20437;-74
2021/01/09 10:06:08;;;;;;;10.33;6.30;;;;;;;;;;5073528;28;20411;-76
2021/01/09 10:08:34;;;;;;;12.43;7.27;;;;;;;;;;5072771;28;20554;-70
2021/01/09 10:11:00;;;;;;;15.67;8.17;;;;;;;;;;5073129;28;20538;-76
2021/01/09 10:13:27;;;;;;;13.37;6.07;;;;;;;;;;5072293;28;20429;-76
2021/01/09 10:15:53;;;;;;;14.87;8.70;;;;;;;;;;5071912;28;20446;-74
2021/01/09 10:18:19;;;;;;;12.80;8.07;;;;;;;;;;5073247;28;20441;-76
2021/01/09 10:20:45;;;;;;;16.67;8.40;;;;;;;;;;5072666;28;20931;-73
2021/01/09 10:23:11;;;;;;;11.17;6.60;;;;;;;;;;5071426;28;20430;-71
2021/01/09 10:25:37;;;;;;;14.20;7.60;;;;;;;;;;5073177;28;20426;-72
2021/01/09 10:28:03;;;;;;;11.73;7.60;;;;;;;;;;5072754;28;20441;-75
2021/01/09 10:30:29;;;;;;;13.37;8.40;;;;;;;;;;5070539;28;20814;-75
2021/01/09 10:32:57;;;;;;;17.00;7.90;;;;;;;;;;5069477;28;20415;-74
2021/01/09 10:35:23;;;;;;;16.33;8.50;;;;;;;;;;5070048;28;20519;-76
2021/01/09 10:37:49;;;;;;;11.33;7.33;;;;;;;;;;5071950;28;20498;-75
2021/01/09 10:40:15;;;;;;;18.53;9.43;;;;;;;;;;5071175;28;20435;-72
2021/01/09 10:42:41;;;;;;;14.17;8.77;;;;;;;;;;5073059;28;20414;-74
2021/01/09 10:45:07;;;;;;;14.27;7.73;;;;;;;;;;5070280;28;20426;-74
2021/01/09 10:47:34;;;;;;;15.87;8.30;;;;;;;;;;5070695;28;20811;-73
2021/01/09 10:50:00;;;;;;;14.30;8.23;;;;;;;;;;5071653;28;20481;-74
2021/01/09 10:52:26;;;;;;;15.13;8.70;;;;;;;;;;5072962;28;20417;-73
2021/01/09 10:54:52;;;;;;;18.70;9.13;;;;;;;;;;5071713;28;20431;-73
2021/01/09 10:57:18;;;;;;;12.20;8.47;;;;;;;;;;5072832;28;20394;-74
2021/01/09 10:59:44;;;;;;;17.57;8.60;;;;;;;;;;5070655;28;20447;-74
2021/01/09 11:02:10;;;;;;;14.13;8.90;;;;;;;;;;5071733;28;20433;-73
2021/01/09 11:04:36;;;;;;;18.90;9.20;;;;;;;;;;5070915;28;20445;-73
2021/01/09 11:07:02;;;;;;;16.90;8.07;;;;;;;;;;5071471;28;20911;-73
2021/01/09 11:09:28;;;;;;;16.97;9.20;;;;;;;;;;5071368;28;20823;-74
2021/01/09 11:11:54;;;;;;;18.00;10.37;;;;;;;;;;5072767;28;20416;-73
2021/01/09 11:14:20;;;;;;;20.93;9.57;;;;;;;;;;5071636;28;20426;-74
2021/01/09 11:16:46;;;;;;;21.20;11.60;;;;;;;;;;5072416;28;20400;-74
2021/01/09 11:19:12;;;;;;;16.77;8.67;;;;;;;;;;5070491;28;20478;-73
2021/01/09 11:21:38;;;;;;;15.57;9.10;;;;;;;;;;5072725;28;20428;-74
2021/01/09 11:24:05;;;;;;;15.57;9.63;;;;;;;;;;5071406;28;20426;-74
2021/01/09 11:26:31;;;;;;;14.97;8.87;;;;;;;;;;5072605;28;20403;-74
2021/01/09 11:28:57;;;;;;;16.70;8.90;;;;;;;;;;5070521;28;20452;-74
2021/01/09 11:31:24;;;;;;;13.33;8.60;;;;;;;;;;5071735;28;20825;-74
2021/01/09 11:33:50;;;;;;;15.10;9.43;;;;;;;;;;5071790;28;20405;-74
2021/01/09 11:36:16;;;;;;;15.90;9.10;;;;;;;;;;5072369;28;20429;-74
2021/01/09 11:38:43;;;;;;;17.57;9.73;;;;;;;;;;5071316;28;20455;-73
2021/01/09 11:41:09;;;;;;;14.50;9.47;;;;;;;;;;5052153;28;20419;-73
2021/01/09 11:43:37;;;;;;;14.57;8.33;;;;;;;;;;5052255;28;20411;-74
2021/01/09 11:46:05;;;;;;;12.10;7.93;;;;;;;;;;5072086;28;20465;-74
2021/01/09 11:48:31;;;;;;;12.53;8.30;;;;;;;;;;5072922;28;20457;-74
2021/01/09 11:50:57;;;;;;;16.17;8.97;;;;;;;;;;5072776;28;20460;-74
2021/01/09 11:53:23;;;;;;;13.63;9.20;;;;;;;;;;5074644;28;20798;-74
2021/01/09 11:55:50;;;;;;;17.97;10.17;;;;;;;;;;5073129;28;20429;-74
2021/01/09 11:58:18;;;;;;;11.90;7.53;;;;;;;;;;5075942;28;20435;-74
2021/01/09 12:00:45;;;;;;;12.57;8.40;;;;;;;;;;5073552;28;20477;-74
2021/01/09 12:03:11;;;;;;;12.30;8.13;;;;;;;;;;5075526;28;20502;-74
2021/01/09 12:05:37;;;;;;;13.63;7.57;;;;;;;;;;5073518;28;20423;-74
2021/01/09 12:08:03;;;;;;;10.60;7.60;;;;;;;;;;5075325;28;20447;-73
2021/01/09 12:10:33;;;;;;;11.43;7.40;;;;;;;;;;5075411;28;20534;-73
2021/01/09 12:12:59;;;;;;;11.03;6.73;;;;;;;;;;5074729;28;20789;-74
2021/01/09 12:15:25;;;;;;;9.57;6.60;;;;;;;;;;5075382;28;20405;-73
2021/01/09 12:17:51;;;;;;;16.93;8.27;;;;;;;;;;5074272;28;20511;-73
2021/01/09 12:20:17;;;;;;;13.93;7.50;;;;;;;;;;5075163;28;20488;-73
2021/01/09 12:22:43;;;;;;;10.93;7.30;;;;;;;;;;5074116;28;20857;-73
2021/01/09 12:25:09;;;;;;;13.40;7.40;;;;;;;;;;5075391;28;20499;-73
2021/01/09 12:27:35;;;;;;;9.53;6.07;;;;;;;;;;5073096;28;20447;-73
2021/01/09 12:30:01;;;;;;;9.67;7.27;;;;;;;;;;5075001;28;20449;-73
2021/01/09 12:32:27;;;;;;;10.23;6.33;;;;;;;;;;5072850;28;20503;-73
2021/01/09 12:34:54;;;;;;;8.73;5.70;;;;;;;;;;5072719;28;20425;-74
2021/01/09 12:37:20;;;;;;;8.17;5.30;;;;;;;;;;5074010;28;20422;-73
2021/01/09 12:39:46;;;;;;;8.53;6.03;;;;;;;;;;5074846;28;20956;-73
2021/01/09 12:42:13;;;;;;;11.30;7.20;;;;;;;;;;5073861;28;20429;-73
2021/01/09 12:44:39;;;;;;;5.03;4.20;;;;;;;;;;5074991;28;20407;-74
2021/01/09 12:47:05;;;;;;;4.80;3.37;;;;;;;;;;5073928;28;20920;-73
2021/01/09 12:49:31;;;;;;;10.50;5.87;;;;;;;;;;5074692;28;20458;-74
2021/01/09 12:51:58;;;;;;;19.93;8.70;;;;;;;;;;5073647;28;20454;-73
2021/01/09 12:54:24;;;;;;;17.47;9.63;;;;;;;;;;5071800;28;20436;-74
2021/01/09 12:56:53;;;;;;;14.53;8.57;;;;;;;;;;5073542;28;20458;-74
2021/01/09 12:59:20;;;;;;;17.40;9.20;;;;;;;;;;5073230;28;20418;-74
2021/01/09 13:01:47;;;;;;;17.17;9.40;;;;;;;;;;5073576;28;20433;-75
2021/01/09 13:04:14;;;;;;;17.30;10.27;;;;;;;;;;5074428;28;20402;-73
2021/01/09 13:06:41;;;;;;;15.77;9.47;;;;;;;;;;5072365;28;20433;-74
2021/01/09 13:12:32;;;;;;;14.63;7.33;;;;;;;;;;5036217;28;20428;-79
2021/01/09 13:15:21;;;;;;;13.90;6.53;;;;;;;;;;5036679;28;20391;-79
2021/01/09 13:18:12;;;;;;;15.70;8.40;;;;;;;;;;5051219;28;20436;-79
2021/01/09 13:20:56;;;;;;;12.67;8.27;;;;;;;;;;5028830;28;20505;-79
2021/01/09 13:23:22;;;;;;;16.47;8.37;;;;;;;;;;5070345;22;20481;-77
2021/01/09 13:25:48;;;;;;;16.60;8.10;;;;;;;;;;5077233;28;20418;-78
2021/01/09 13:28:14;;;;;;;16.97;7.60;;;;;;;;;;5075438;28;20521;-77
2021/01/09 13:30:40;;;;;;;11.40;6.87;;;;;;;;;;5077461;28;20814;-77
2021/01/09 13:33:06;;;;;;;16.23;8.53;;;;;;;;;;5076192;28;20430;-77
2021/01/09 13:35:32;;;;;;;17.87;10.10;;;;;;;;;;5067004;28;20486;-77
2021/01/09 13:38:19;;;;;;;14.77;8.07;;;;;;;;;;5097766;22;20538;-82
2021/01/09 13:41:32;;;;;;;15.20;8.43;;;;;;;;;;5091290;28;20426;-82
2021/01/09 13:43:58;;;;;;;14.00;8.07;;;;;;;;;;5066680;22;20603;-69
2021/01/09 13:46:28;;;;;;;11.13;6.83;;;;;;;;;;5065499;28;20501;-71
2021/01/09 13:48:54;;;;;;;13.80;7.03;;;;;;;;;;5072182;28;20390;-69
2021/01/09 13:51:21;;;;;;;11.30;6.90;;;;;;;;;;5063294;28;20931;-71
2021/01/09 13:53:48;;;;;;;12.83;7.27;;;;;;;;;;5069471;28;20430;-69
2021/01/09 13:56:14;;;;;;;11.20;6.43;;;;;;;;;;5072344;28;20400;-69
2021/01/09 13:58:40;;;;;;;14.20;7.70;;;;;;;;;;5055319;28;20418;-69
2021/01/09 14:01:06;;;;;;;13.73;8.23;;;;;;;;;;5072528;28;20761;-70
2021/01/09 14:03:32;;;;;;;18.93;8.23;;;;;;;;;;5072334;28;20504;-69
2021/01/09 14:05:58;;;;;;;16.30;8.90;;;;;;;;;;5073045;28;20395;-70
2021/01/09 14:08:24;;;;;;;14.80;7.80;;;;;;;;;;5071929;28;20917;-70
2021/01/09 14:10:50;;;;;;;11.90;8.53;;;;;;;;;;5069997;28;20449;-70
2021/01/09 14:13:16;;;;;;;13.70;9.07;;;;;;;;;;5062786;28;20431;-70
2021/01/09 14:15:42;;;;;;;15.93;11.20;;;;;;;;;;5070163;28;21062;-69
2021/01/09 14:18:08;;;;;;;14.00;8.43;;;;;;;;;;5072010;28;20422;-69
2021/01/09 14:20:34;;;;;;;17.17;8.93;;;;;;;;;;5073105;28;20401;-69
2021/01/09 14:23:00;;;;;;;15.87;9.27;;;;;;;;;;5072376;28;20448;-69
2021/01/09 14:25:26;;;;;;;11.73;8.27;;;;;;;;;;5073392;28;20417;-69
2021/01/09 14:27:52;;;;;;;20.50;9.60;;;;;;;;;;5059371;28;20422;-70
2021/01/09 14:30:18;;;;;;;17.30;9.27;;;;;;;;;;5053064;28;20587;-69
2021/01/09 14:32:44;;;;;;;14.97;8.23;;;;;;;;;;5053367;28;20860;-69
2021/01/09 14:35:10;;;;;;;13.23;8.40;;;;;;;;;;5053314;28;20398;-69